sensor_id;sensor_type;location;lat;lon;timestamp;temperature;humidity
30097;DHT22;16915;51.466;3.610;2022-09-09T00:00:38;15.50;99.90
30097;DHT22;16915;51.466;3.610;2022-09-09T00:03:17;15.40;99.90
30097;DHT22;16915;51.466;3.610;2022-09-09T00:08:22;15.50;99.90
30097;DHT22;16915;51.466;3.610;2022-09-09T00:11:00;15.40;99.90
30097;DHT22;16915;51.466;3.610;2022-09-09T00:13:32;15.40;99.90
30097;DHT22;16915;51.466;3.610;2022-09-09T00:16:10;15.40;99.90
30097;DHT22;16915;51.466;3.610;2022-09-09T00:19:14;15.40;99.90
30097;DHT22;16915;51.466;3.610;2022-09-09T00:22:20;15.40;99.90
30097;DHT22;16915;51.466;3.610;2022-09-09T00:28:36;15.40;99.90
30097;DHT22;16915;51.466;3.610;2022-09-09T00:31:30;15.30;99.90
30097;DHT22;16915;51.466;3.610;2022-09-09T00:34:14;15.30;99.90
30097;DHT22;16915;51.466;3.610;2022-09-09T00:36:42;15.30;99.90
30097;DHT22;16915;51.466;3.610;2022-09-09T00:48:28;15.30;99.90
30097;DHT22;16915;51.466;3.610;2022-09-09T00:51:06;15.20;99.90
30097;DHT22;16915;51.466;3.610;2022-09-09T00:56:35;15.20;99.90
30097;DHT22;16915;51.466;3.610;2022-09-09T01:12:43;15.20;99.90
30097;DHT22;16915;51.466;3.610;2022-09-09T01:15:22;15.20;99.90
30097;DHT22;16915;51.466;3.610;2022-09-09T01:18:10;15.20;99.90
30097;DHT22;16915;51.466;3.610;2022-09-09T01:27:10;15.30;99.90
30097;DHT22;16915;51.466;3.610;2022-09-09T01:29:37;15.30;99.90
30097;DHT22;16915;51.466;3.610;2022-09-09T01:38:45;15.20;99.90
30097;DHT22;16915;51.466;3.610;2022-09-09T01:41:16;15.20;99.90
30097;DHT22;16915;51.466;3.610;2022-09-09T01:43:42;15.20;99.90
30097;DHT22;16915;51.466;3.610;2022-09-09T01:46:10;15.20;99.90
30097;DHT22;16915;51.466;3.610;2022-09-09T01:48:37;15.30;99.90
30097;DHT22;16915;51.466;3.610;2022-09-09T01:51:03;15.20;99.90
30097;DHT22;16915;51.466;3.610;2022-09-09T01:54:11;15.20;99.90
30097;DHT22;16915;51.466;3.610;2022-09-09T02:00:20;15.30;99.90
30097;DHT22;16915;51.466;3.610;2022-09-09T02:03:28;15.30;99.90
30097;DHT22;16915;51.466;3.610;2022-09-09T02:06:00;15.30;99.90
30097;DHT22;16915;51.466;3.610;2022-09-09T02:12:34;15.30;99.90
30097;DHT22;16915;51.466;3.610;2022-09-09T02:18:57;15.30;99.90
30097;DHT22;16915;51.466;3.610;2022-09-09T02:21:55;15.20;99.90
30097;DHT22;16915;51.466;3.610;2022-09-09T02:24:58;15.20;99.90
30097;DHT22;16915;51.466;3.610;2022-09-09T02:28:36;15.20;99.90
30097;DHT22;16915;51.466;3.610;2022-09-09T02:31:07;15.20;99.90
30097;DHT22;16915;51.466;3.610;2022-09-09T02:33:38;15.20;99.90
30097;DHT22;16915;51.466;3.610;2022-09-09T02:39:51;15.20;99.90
30097;DHT22;16915;51.466;3.610;2022-09-09T02:42:50;15.30;99.90
30097;DHT22;16915;51.466;3.610;2022-09-09T02:45:20;15.30;99.90
30097;DHT22;16915;51.466;3.610;2022-09-09T02:48:26;15.20;99.90
30097;DHT22;16915;51.466;3.610;2022-09-09T03:01:38;15.30;99.90
30097;DHT22;16915;51.466;3.610;2022-09-09T03:04:29;15.20;99.90
30097;DHT22;16915;51.466;3.610;2022-09-09T03:07:19;15.20;99.90
30097;DHT22;16915;51.466;3.610;2022-09-09T03:10:31;15.30;99.90
30097;DHT22;16915;51.466;3.610;2022-09-09T03:12:58;15.30;99.90
30097;DHT22;16915;51.466;3.610;2022-09-09T03:15:34;15.30;99.90
30097;DHT22;16915;51.466;3.610;2022-09-09T03:18:18;15.40;99.90
30097;DHT22;16915;51.466;3.610;2022-09-09T03:21:11;15.40;99.90
30097;DHT22;16915;51.466;3.610;2022-09-09T03:24:12;15.40;99.90
30097;DHT22;16915;51.466;3.610;2022-09-09T03:26:57;15.40;99.90
30097;DHT22;16915;51.466;3.610;2022-09-09T03:30:15;15.50;99.90
30097;DHT22;16915;51.466;3.610;2022-09-09T03:32:55;15.50;99.90
30097;DHT22;16915;51.466;3.610;2022-09-09T03:35:50;15.50;99.90
30097;DHT22;16915;51.466;3.610;2022-09-09T03:38:19;15.50;99.90
30097;DHT22;16915;51.466;3.610;2022-09-09T03:40:55;15.50;99.90
30097;DHT22;16915;51.466;3.610;2022-09-09T03:43:42;15.50;99.90
30097;DHT22;16915;51.466;3.610;2022-09-09T03:47:04;15.60;99.90
30097;DHT22;16915;51.466;3.610;2022-09-09T03:50:29;15.50;99.90
30097;DHT22;16915;51.466;3.610;2022-09-09T03:53:53;15.60;99.90
30097;DHT22;16915;51.466;3.610;2022-09-09T03:56:41;15.50;99.90
30097;DHT22;16915;51.466;3.610;2022-09-09T03:59:13;15.50;99.90
30097;DHT22;16915;51.466;3.610;2022-09-09T04:02:48;15.50;99.90
30097;DHT22;16915;51.466;3.610;2022-09-09T04:09:24;15.50;99.90
30097;DHT22;16915;51.466;3.610;2022-09-09T04:12:33;15.50;99.90
30097;DHT22;16915;51.466;3.610;2022-09-09T04:15:57;15.50;99.90
30097;DHT22;16915;51.466;3.610;2022-09-09T04:18:54;15.50;99.90
30097;DHT22;16915;51.466;3.610;2022-09-09T04:25:08;15.40;99.90
30097;DHT22;16915;51.466;3.610;2022-09-09T04:28:45;15.30;99.90
30097;DHT22;16915;51.466;3.610;2022-09-09T04:32:00;15.30;99.90
30097;DHT22;16915;51.466;3.610;2022-09-09T04:35:57;15.30;99.90
30097;DHT22;16915;51.466;3.610;2022-09-09T04:39:22;15.20;99.90
30097;DHT22;16915;51.466;3.610;2022-09-09T04:42:13;15.20;99.90
30097;DHT22;16915;51.466;3.610;2022-09-09T04:45:47;15.20;99.90
30097;DHT22;16915;51.466;3.610;2022-09-09T04:48:47;15.20;99.90
30097;DHT22;16915;51.466;3.610;2022-09-09T04:51:29;15.20;99.90
30097;DHT22;16915;51.466;3.610;2022-09-09T04:54:11;15.30;99.90
30097;DHT22;16915;51.466;3.610;2022-09-09T04:56:44;15.20;99.90
30097;DHT22;16915;51.466;3.610;2022-09-09T06:13:30;15.70;99.90
30097;DHT22;16915;51.466;3.610;2022-09-09T06:16:50;15.70;99.90
30097;DHT22;16915;51.466;3.610;2022-09-09T06:27:01;15.90;99.90
30097;DHT22;16915;51.466;3.610;2022-09-09T06:33:42;16.00;99.90
30097;DHT22;16915;51.466;3.610;2022-09-09T06:46:55;16.30;99.90
30097;DHT22;16915;51.466;3.610;2022-09-09T06:50:08;16.30;99.90
30097;DHT22;16915;51.466;3.610;2022-09-09T06:52:58;16.20;99.90
30097;DHT22;16915;51.466;3.610;2022-09-09T06:56:50;16.20;99.90
30097;DHT22;16915;51.466;3.610;2022-09-09T06:59:43;16.50;99.90
30097;DHT22;16915;51.466;3.610;2022-09-09T07:02:51;16.60;99.90
30097;DHT22;16915;51.466;3.610;2022-09-09T07:05:33;16.70;99.90
30097;DHT22;16915;51.466;3.610;2022-09-09T07:09:08;16.80;99.90
30097;DHT22;16915;51.466;3.610;2022-09-09T07:12:22;16.90;99.90
30097;DHT22;16915;51.466;3.610;2022-09-09T07:14:49;17.00;99.90
30097;DHT22;16915;51.466;3.610;2022-09-09T07:17:17;17.00;99.90
30097;DHT22;16915;51.466;3.610;2022-09-09T07:19:49;17.10;99.90
30097;DHT22;16915;51.466;3.610;2022-09-09T07:22:40;17.30;99.90
30097;DHT22;16915;51.466;3.610;2022-09-09T07:25:28;17.30;99.90
30097;DHT22;16915;51.466;3.610;2022-09-09T07:28:07;17.30;99.90
30097;DHT22;16915;51.466;3.610;2022-09-09T07:30:33;17.20;99.90
30097;DHT22;16915;51.466;3.610;2022-09-09T07:33:05;17.10;99.90
30097;DHT22;16915;51.466;3.610;2022-09-09T07:35:36;17.10;99.90
30097;DHT22;16915;51.466;3.610;2022-09-09T07:41:19;17.00;99.90
30097;DHT22;16915;51.466;3.610;2022-09-09T07:44:42;16.90;99.90
30097;DHT22;16915;51.466;3.610;2022-09-09T07:47:28;16.70;99.90
30097;DHT22;16915;51.466;3.610;2022-09-09T07:49:56;16.70;99.90
30097;DHT22;16915;51.466;3.610;2022-09-09T07:52:25;16.60;99.90
30097;DHT22;16915;51.466;3.610;2022-09-09T07:55:05;16.60;99.90
30097;DHT22;16915;51.466;3.610;2022-09-09T07:57:33;16.60;99.90
30097;DHT22;16915;51.466;3.610;2022-09-09T08:00:06;16.60;99.90
30097;DHT22;16915;51.466;3.610;2022-09-09T08:02:57;16.60;99.90
30097;DHT22;16915;51.466;3.610;2022-09-09T08:05:50;16.70;99.90
30097;DHT22;16915;51.466;3.610;2022-09-09T08:08:20;16.60;99.90
30097;DHT22;16915;51.466;3.610;2022-09-09T08:10:48;16.60;99.90
30097;DHT22;16915;51.466;3.610;2022-09-09T08:16:47;16.60;99.90
30097;DHT22;16915;51.466;3.610;2022-09-09T08:19:14;16.60;99.90
30097;DHT22;16915;51.466;3.610;2022-09-09T08:21:43;16.60;99.90
30097;DHT22;16915;51.466;3.610;2022-09-09T08:24:11;16.60;99.90
30097;DHT22;16915;51.466;3.610;2022-09-09T08:26:43;16.60;99.90
30097;DHT22;16915;51.466;3.610;2022-09-09T08:29:13;16.60;99.90
30097;DHT22;16915;51.466;3.610;2022-09-09T08:32:07;16.60;99.90
30097;DHT22;16915;51.466;3.610;2022-09-09T08:37:55;16.60;99.90
30097;DHT22;16915;51.466;3.610;2022-09-09T08:40:26;16.60;99.90
30097;DHT22;16915;51.466;3.610;2022-09-09T08:42:56;16.60;99.90
30097;DHT22;16915;51.466;3.610;2022-09-09T08:51:55;17.10;99.90
30097;DHT22;16915;51.466;3.610;2022-09-09T08:54:45;17.30;99.90
30097;DHT22;16915;51.466;3.610;2022-09-09T08:57:26;17.30;99.90
30097;DHT22;16915;51.466;3.610;2022-09-09T09:00:28;17.30;99.90
30097;DHT22;16915;51.466;3.610;2022-09-09T09:12:35;17.30;99.90
30097;DHT22;16915;51.466;3.610;2022-09-09T09:15:14;17.40;99.90
30097;DHT22;16915;51.466;3.610;2022-09-09T09:17:52;17.70;99.90
30097;DHT22;16915;51.466;3.610;2022-09-09T09:20:24;18.00;99.90
30097;DHT22;16915;51.466;3.610;2022-09-09T09:22:55;18.30;99.90
30097;DHT22;16915;51.466;3.610;2022-09-09T09:25:38;18.40;99.90
30097;DHT22;16915;51.466;3.610;2022-09-09T09:28:20;18.20;99.90
30097;DHT22;16915;51.466;3.610;2022-09-09T09:31:06;18.10;99.90
30097;DHT22;16915;51.466;3.610;2022-09-09T09:34:01;18.20;99.90
30097;DHT22;16915;51.466;3.610;2022-09-09T09:36:54;18.50;99.90
30097;DHT22;16915;51.466;3.610;2022-09-09T09:39:29;18.60;99.90
30097;DHT22;16915;51.466;3.610;2022-09-09T09:41:55;18.60;99.90
30097;DHT22;16915;51.466;3.610;2022-09-09T09:44:32;18.40;99.90
30097;DHT22;16915;51.466;3.610;2022-09-09T09:47:08;18.40;99.90
30097;DHT22;16915;51.466;3.610;2022-09-09T09:49:34;18.50;99.90
30097;DHT22;16915;51.466;3.610;2022-09-09T09:52:01;18.60;99.90
30097;DHT22;16915;51.466;3.610;2022-09-09T09:54:34;18.70;99.90
30097;DHT22;16915;51.466;3.610;2022-09-09T09:57:12;18.70;99.90
30097;DHT22;16915;51.466;3.610;2022-09-09T09:59:38;18.30;99.90
30097;DHT22;16915;51.466;3.610;2022-09-09T10:02:26;18.00;99.90
30097;DHT22;16915;51.466;3.610;2022-09-09T10:05:45;17.60;99.90
30097;DHT22;16915;51.466;3.610;2022-09-09T10:08:43;17.40;99.90
30097;DHT22;16915;51.466;3.610;2022-09-09T10:11:46;17.40;99.90
30097;DHT22;16915;51.466;3.610;2022-09-09T10:14:41;17.30;99.90
30097;DHT22;16915;51.466;3.610;2022-09-09T10:18:13;17.30;99.90
30097;DHT22;16915;51.466;3.610;2022-09-09T10:21:41;17.30;99.90
30097;DHT22;16915;51.466;3.610;2022-09-09T10:31:27;17.00;99.90
30097;DHT22;16915;51.466;3.610;2022-09-09T10:37:32;16.80;99.90
30097;DHT22;16915;51.466;3.610;2022-09-09T10:40:15;16.70;99.90
30097;DHT22;16915;51.466;3.610;2022-09-09T10:46:23;16.80;99.90
30097;DHT22;16915;51.466;3.610;2022-09-09T10:57:41;16.90;99.90
30097;DHT22;16915;51.466;3.610;2022-09-09T11:00:17;17.00;99.90
30097;DHT22;16915;51.466;3.610;2022-09-09T11:03:06;16.90;99.90
30097;DHT22;16915;51.466;3.610;2022-09-09T11:05:53;16.90;99.90
30097;DHT22;16915;51.466;3.610;2022-09-09T11:08:32;16.70;99.90
30097;DHT22;16915;51.466;3.610;2022-09-09T11:13:58;16.40;99.90
30097;DHT22;16915;51.466;3.610;2022-09-09T11:17:01;16.40;99.90
30097;DHT22;16915;51.466;3.610;2022-09-09T11:19:44;16.40;99.90
30097;DHT22;16915;51.466;3.610;2022-09-09T11:22:29;16.30;99.90
30097;DHT22;16915;51.466;3.610;2022-09-09T11:25:13;16.40;99.90
30097;DHT22;16915;51.466;3.610;2022-09-09T11:31:37;16.30;99.90
30097;DHT22;16915;51.466;3.610;2022-09-09T11:40:26;16.20;99.90
30097;DHT22;16915;51.466;3.610;2022-09-09T11:43:17;16.20;99.90
30097;DHT22;16915;51.466;3.610;2022-09-09T11:45:51;16.20;99.90
30097;DHT22;16915;51.466;3.610;2022-09-09T11:49:03;16.40;99.90
30097;DHT22;16915;51.466;3.610;2022-09-09T11:51:52;16.60;99.90
30097;DHT22;16915;51.466;3.610;2022-09-09T11:54:31;16.90;99.90
30097;DHT22;16915;51.466;3.610;2022-09-09T11:56:58;17.00;99.90
30097;DHT22;16915;51.466;3.610;2022-09-09T11:59:24;16.90;99.90
30097;DHT22;16915;51.466;3.610;2022-09-09T12:05:09;16.60;99.90
30097;DHT22;16915;51.466;3.610;2022-09-09T12:07:57;16.50;99.90
30097;DHT22;16915;51.466;3.610;2022-09-09T12:10:29;16.50;99.90
30097;DHT22;16915;51.466;3.610;2022-09-09T12:13:28;16.50;99.90
30097;DHT22;16915;51.466;3.610;2022-09-09T12:15:53;16.60;99.90
30097;DHT22;16915;51.466;3.610;2022-09-09T12:18:41;16.60;99.90
30097;DHT22;16915;51.466;3.610;2022-09-09T12:21:33;16.60;99.90
30097;DHT22;16915;51.466;3.610;2022-09-09T12:24:11;16.60;99.90
30097;DHT22;16915;51.466;3.610;2022-09-09T12:26:43;16.70;99.90
30097;DHT22;16915;51.466;3.610;2022-09-09T12:32:06;16.90;99.90
30097;DHT22;16915;51.466;3.610;2022-09-09T12:34:46;16.80;99.90
30097;DHT22;16915;51.466;3.610;2022-09-09T12:39:59;16.40;99.90
30097;DHT22;16915;51.466;3.610;2022-09-09T12:42:27;16.30;99.90
30097;DHT22;16915;51.466;3.610;2022-09-09T12:47:20;16.00;99.90
30097;DHT22;16915;51.466;3.610;2022-09-09T12:49:48;16.10;99.90
30097;DHT22;16915;51.466;3.610;2022-09-09T12:52:32;16.20;99.90
30097;DHT22;16915;51.466;3.610;2022-09-09T12:55:02;16.40;99.90
30097;DHT22;16915;51.466;3.610;2022-09-09T12:57:38;16.60;99.90
30097;DHT22;16915;51.466;3.610;2022-09-09T13:00:15;16.60;99.90
30097;DHT22;16915;51.466;3.610;2022-09-09T13:02:52;16.70;99.90
30097;DHT22;16915;51.466;3.610;2022-09-09T13:05:24;16.90;99.90
30097;DHT22;16915;51.466;3.610;2022-09-09T13:07:51;17.10;99.90
30097;DHT22;16915;51.466;3.610;2022-09-09T13:10:24;17.20;99.90
30097;DHT22;16915;51.466;3.610;2022-09-09T13:12:57;17.20;99.90
30097;DHT22;16915;51.466;3.610;2022-09-09T13:15:26;17.10;99.90
30097;DHT22;16915;51.466;3.610;2022-09-09T13:17:56;17.10;99.90
30097;DHT22;16915;51.466;3.610;2022-09-09T13:20:23;17.10;99.90
30097;DHT22;16915;51.466;3.610;2022-09-09T13:22:51;17.00;99.90
30097;DHT22;16915;51.466;3.610;2022-09-09T13:25:29;17.00;99.90
30097;DHT22;16915;51.466;3.610;2022-09-09T13:28:05;17.10;99.90
30097;DHT22;16915;51.466;3.610;2022-09-09T13:30:36;17.50;99.90
30097;DHT22;16915;51.466;3.610;2022-09-09T13:35:56;17.90;99.90
30097;DHT22;16915;51.466;3.610;2022-09-09T13:38:22;18.00;99.90
30097;DHT22;16915;51.466;3.610;2022-09-09T13:40:56;18.00;99.90
30097;DHT22;16915;51.466;3.610;2022-09-09T13:43:23;18.00;99.90
30097;DHT22;16915;51.466;3.610;2022-09-09T13:46:23;17.90;99.90
30097;DHT22;16915;51.466;3.610;2022-09-09T13:51:42;17.60;99.90
30097;DHT22;16915;51.466;3.610;2022-09-09T13:54:13;17.50;99.90
30097;DHT22;16915;51.466;3.610;2022-09-09T13:56:40;17.60;99.90
30097;DHT22;16915;51.466;3.610;2022-09-09T13:59:11;17.80;99.90
30097;DHT22;16915;51.466;3.610;2022-09-09T14:01:37;18.10;99.90
30097;DHT22;16915;51.466;3.610;2022-09-09T14:04:03;18.00;99.90
30097;DHT22;16915;51.466;3.610;2022-09-09T14:06:32;18.00;99.90
30097;DHT22;16915;51.466;3.610;2022-09-09T14:08:58;17.80;99.90
30097;DHT22;16915;51.466;3.610;2022-09-09T14:11:24;17.70;99.90
30097;DHT22;16915;51.466;3.610;2022-09-09T14:13:50;17.50;99.90
30097;DHT22;16915;51.466;3.610;2022-09-09T14:16:17;17.40;99.90
30097;DHT22;16915;51.466;3.610;2022-09-09T14:18:43;17.40;99.90
30097;DHT22;16915;51.466;3.610;2022-09-09T14:21:10;17.30;99.90
30097;DHT22;16915;51.466;3.610;2022-09-09T14:23:36;17.30;99.90
30097;DHT22;16915;51.466;3.610;2022-09-09T14:26:01;17.60;99.90
30097;DHT22;16915;51.466;3.610;2022-09-09T14:28:27;18.00;99.90
30097;DHT22;16915;51.466;3.610;2022-09-09T14:30:54;18.80;99.90
30097;DHT22;16915;51.466;3.610;2022-09-09T14:33:19;18.90;99.90
30097;DHT22;16915;51.466;3.610;2022-09-09T14:35:45;18.70;99.90
30097;DHT22;16915;51.466;3.610;2022-09-09T14:38:11;19.00;99.90
30097;DHT22;16915;51.466;3.610;2022-09-09T14:40:37;19.60;99.90
30097;DHT22;16915;51.466;3.610;2022-09-09T14:43:04;20.20;99.90
30097;DHT22;16915;51.466;3.610;2022-09-09T14:45:30;20.80;99.90
30097;DHT22;16915;51.466;3.610;2022-09-09T14:47:56;21.60;99.90
30097;DHT22;16915;51.466;3.610;2022-09-09T14:50:23;22.30;99.90
30097;DHT22;16915;51.466;3.610;2022-09-09T14:52:49;22.10;99.90
30097;DHT22;16915;51.466;3.610;2022-09-09T14:55:15;22.00;99.90
30097;DHT22;16915;51.466;3.610;2022-09-09T14:57:41;22.50;99.90
30097;DHT22;16915;51.466;3.610;2022-09-09T15:00:09;23.50;99.90
30097;DHT22;16915;51.466;3.610;2022-09-09T15:02:37;23.70;99.90
30097;DHT22;16915;51.466;3.610;2022-09-09T15:05:03;23.30;99.90
30097;DHT22;16915;51.466;3.610;2022-09-09T15:07:29;22.70;99.90
30097;DHT22;16915;51.466;3.610;2022-09-09T15:09:58;22.20;99.90
30097;DHT22;16915;51.466;3.610;2022-09-09T15:12:24;21.70;99.90
30097;DHT22;16915;51.466;3.610;2022-09-09T15:14:49;21.30;99.90
30097;DHT22;16915;51.466;3.610;2022-09-09T15:17:15;20.90;99.90
30097;DHT22;16915;51.466;3.610;2022-09-09T15:19:41;20.50;99.90
30097;DHT22;16915;51.466;3.610;2022-09-09T15:22:08;20.20;99.90
30097;DHT22;16915;51.466;3.610;2022-09-09T15:24:34;19.90;99.90
30097;DHT22;16915;51.466;3.610;2022-09-09T15:27:00;19.80;99.90
30097;DHT22;16915;51.466;3.610;2022-09-09T15:29:26;19.60;99.90
30097;DHT22;16915;51.466;3.610;2022-09-09T15:31:53;19.40;99.90
30097;DHT22;16915;51.466;3.610;2022-09-09T15:34:19;19.20;99.90
30097;DHT22;16915;51.466;3.610;2022-09-09T15:36:45;19.00;99.90
30097;DHT22;16915;51.466;3.610;2022-09-09T15:39:16;18.90;99.90
30097;DHT22;16915;51.466;3.610;2022-09-09T15:41:46;18.90;99.90
30097;DHT22;16915;51.466;3.610;2022-09-09T15:44:12;18.90;99.90
30097;DHT22;16915;51.466;3.610;2022-09-09T15:46:39;18.90;99.90
30097;DHT22;16915;51.466;3.610;2022-09-09T15:49:11;18.80;99.90
30097;DHT22;16915;51.466;3.610;2022-09-09T15:51:40;18.70;99.90
30097;DHT22;16915;51.466;3.610;2022-09-09T15:54:06;18.60;99.90
30097;DHT22;16915;51.466;3.610;2022-09-09T15:56:32;18.50;99.90
30097;DHT22;16915;51.466;3.610;2022-09-09T15:58:59;18.50;99.90
30097;DHT22;16915;51.466;3.610;2022-09-09T16:01:26;18.60;99.90
30097;DHT22;16915;51.466;3.610;2022-09-09T16:03:52;18.70;99.90
30097;DHT22;16915;51.466;3.610;2022-09-09T16:06:20;18.90;99.90
30097;DHT22;16915;51.466;3.610;2022-09-09T16:08:48;19.00;99.90
30097;DHT22;16915;51.466;3.610;2022-09-09T16:11:22;18.90;99.90
30097;DHT22;16915;51.466;3.610;2022-09-09T16:13:50;18.80;99.90
30097;DHT22;16915;51.466;3.610;2022-09-09T16:16:21;18.80;99.90
30097;DHT22;16915;51.466;3.610;2022-09-09T16:18:52;18.70;99.90
30097;DHT22;16915;51.466;3.610;2022-09-09T16:21:28;18.60;99.90
30097;DHT22;16915;51.466;3.610;2022-09-09T16:23:58;18.50;99.90
30097;DHT22;16915;51.466;3.610;2022-09-09T16:26:29;18.40;99.90
30097;DHT22;16915;51.466;3.610;2022-09-09T16:28:55;18.30;99.90
30097;DHT22;16915;51.466;3.610;2022-09-09T16:31:23;18.20;99.90
30097;DHT22;16915;51.466;3.610;2022-09-09T16:33:50;18.10;99.90
30097;DHT22;16915;51.466;3.610;2022-09-09T16:36:21;18.10;99.90
30097;DHT22;16915;51.466;3.610;2022-09-09T16:38:47;18.00;99.90
30097;DHT22;16915;51.466;3.610;2022-09-09T16:41:14;18.00;99.90
30097;DHT22;16915;51.466;3.610;2022-09-09T16:43:40;18.00;99.90
30097;DHT22;16915;51.466;3.610;2022-09-09T16:46:18;18.00;99.90
30097;DHT22;16915;51.466;3.610;2022-09-09T16:49:03;18.00;99.90
30097;DHT22;16915;51.466;3.610;2022-09-09T16:51:33;18.00;99.90
30097;DHT22;16915;51.466;3.610;2022-09-09T16:54:04;18.10;99.90
30097;DHT22;16915;51.466;3.610;2022-09-09T16:56:35;18.10;99.90
30097;DHT22;16915;51.466;3.610;2022-09-09T16:59:12;18.10;99.90
30097;DHT22;16915;51.466;3.610;2022-09-09T17:01:40;18.10;99.90
30097;DHT22;16915;51.466;3.610;2022-09-09T17:04:10;18.10;99.90
30097;DHT22;16915;51.466;3.610;2022-09-09T17:06:36;18.10;99.90
30097;DHT22;16915;51.466;3.610;2022-09-09T17:09:05;18.30;99.90
30097;DHT22;16915;51.466;3.610;2022-09-09T17:11:31;18.50;99.90
30097;DHT22;16915;51.466;3.610;2022-09-09T17:13:58;18.60;99.90
30097;DHT22;16915;51.466;3.610;2022-09-09T17:16:27;18.80;99.90
30097;DHT22;16915;51.466;3.610;2022-09-09T17:18:54;18.80;99.90
30097;DHT22;16915;51.466;3.610;2022-09-09T17:21:22;18.80;99.90
30097;DHT22;16915;51.466;3.610;2022-09-09T17:23:49;18.70;99.90
30097;DHT22;16915;51.466;3.610;2022-09-09T17:26:17;18.60;99.90
30097;DHT22;16915;51.466;3.610;2022-09-09T17:28:43;18.50;99.90
30097;DHT22;16915;51.466;3.610;2022-09-09T17:31:17;18.30;99.90
30097;DHT22;16915;51.466;3.610;2022-09-09T17:33:46;18.20;99.90
30097;DHT22;16915;51.466;3.610;2022-09-09T17:36:32;18.10;99.90
30097;DHT22;16915;51.466;3.610;2022-09-09T17:38:59;18.10;99.90
30097;DHT22;16915;51.466;3.610;2022-09-09T17:41:27;18.00;99.90
30097;DHT22;16915;51.466;3.610;2022-09-09T17:43:54;17.90;99.90
30097;DHT22;16915;51.466;3.610;2022-09-09T17:46:22;17.90;99.90
30097;DHT22;16915;51.466;3.610;2022-09-09T17:48:50;17.80;99.90
30097;DHT22;16915;51.466;3.610;2022-09-09T17:51:19;17.80;99.90
30097;DHT22;16915;51.466;3.610;2022-09-09T17:53:48;17.80;99.90
30097;DHT22;16915;51.466;3.610;2022-09-09T17:56:18;17.70;99.90
30097;DHT22;16915;51.466;3.610;2022-09-09T17:58:45;17.60;99.90
30097;DHT22;16915;51.466;3.610;2022-09-09T18:01:14;17.50;99.90
30097;DHT22;16915;51.466;3.610;2022-09-09T18:03:41;17.40;99.90
30097;DHT22;16915;51.466;3.610;2022-09-09T18:06:13;17.40;99.90
30097;DHT22;16915;51.466;3.610;2022-09-09T18:08:41;17.30;99.90
30097;DHT22;16915;51.466;3.610;2022-09-09T18:11:07;17.20;99.90
30097;DHT22;16915;51.466;3.610;2022-09-09T18:13:34;17.20;99.90
30097;DHT22;16915;51.466;3.610;2022-09-09T18:16:00;17.20;99.90
30097;DHT22;16915;51.466;3.610;2022-09-09T18:18:27;17.10;99.90
30097;DHT22;16915;51.466;3.610;2022-09-09T18:21:19;17.10;99.90
30097;DHT22;16915;51.466;3.610;2022-09-09T18:23:46;17.10;99.90
30097;DHT22;16915;51.466;3.610;2022-09-09T18:26:20;17.10;99.90
30097;DHT22;16915;51.466;3.610;2022-09-09T18:28:49;17.10;99.90
30097;DHT22;16915;51.466;3.610;2022-09-09T18:31:17;17.10;99.90
30097;DHT22;16915;51.466;3.610;2022-09-09T18:33:46;17.10;99.90
30097;DHT22;16915;51.466;3.610;2022-09-09T18:36:21;17.10;99.90
30097;DHT22;16915;51.466;3.610;2022-09-09T18:38:47;17.10;99.90
30097;DHT22;16915;51.466;3.610;2022-09-09T18:41:22;17.10;99.90
30097;DHT22;16915;51.466;3.610;2022-09-09T18:43:54;17.10;99.90
30097;DHT22;16915;51.466;3.610;2022-09-09T18:46:21;17.00;99.90
30097;DHT22;16915;51.466;3.610;2022-09-09T18:48:47;17.00;99.90
30097;DHT22;16915;51.466;3.610;2022-09-09T18:51:21;17.00;99.90
30097;DHT22;16915;51.466;3.610;2022-09-09T18:54:04;17.10;99.90
30097;DHT22;16915;51.466;3.610;2022-09-09T18:56:35;17.00;99.90
30097;DHT22;16915;51.466;3.610;2022-09-09T18:59:29;17.00;99.90
30097;DHT22;16915;51.466;3.610;2022-09-09T19:01:56;16.90;99.90
30097;DHT22;16915;51.466;3.610;2022-09-09T19:04:24;16.80;99.90
30097;DHT22;16915;51.466;3.610;2022-09-09T19:06:51;16.70;99.90
30097;DHT22;16915;51.466;3.610;2022-09-09T19:09:23;16.70;99.90
30097;DHT22;16915;51.466;3.610;2022-09-09T19:11:49;16.70;99.90
30097;DHT22;16915;51.466;3.610;2022-09-09T19:14:17;16.60;99.90
30097;DHT22;16915;51.466;3.610;2022-09-09T19:16:44;16.60;99.90
30097;DHT22;16915;51.466;3.610;2022-09-09T19:19:30;16.60;99.90
30097;DHT22;16915;51.466;3.610;2022-09-09T19:21:56;16.60;99.90
30097;DHT22;16915;51.466;3.610;2022-09-09T19:24:25;16.60;99.90
30097;DHT22;16915;51.466;3.610;2022-09-09T19:26:56;16.50;99.90
30097;DHT22;16915;51.466;3.610;2022-09-09T19:29:27;16.50;99.90
30097;DHT22;16915;51.466;3.610;2022-09-09T19:31:54;16.50;99.90
30097;DHT22;16915;51.466;3.610;2022-09-09T19:34:20;16.50;99.90
30097;DHT22;16915;51.466;3.610;2022-09-09T19:36:46;16.50;99.90
30097;DHT22;16915;51.466;3.610;2022-09-09T19:39:14;16.50;99.90
30097;DHT22;16915;51.466;3.610;2022-09-09T19:41:40;16.60;99.90
30097;DHT22;16915;51.466;3.610;2022-09-09T19:44:10;16.50;99.90
30097;DHT22;16915;51.466;3.610;2022-09-09T19:46:37;16.50;99.90
30097;DHT22;16915;51.466;3.610;2022-09-09T19:49:05;16.50;99.90
30097;DHT22;16915;51.466;3.610;2022-09-09T19:51:32;16.40;99.90
30097;DHT22;16915;51.466;3.610;2022-09-09T19:54:02;16.30;99.90
30097;DHT22;16915;51.466;3.610;2022-09-09T19:56:31;16.30;99.90
30097;DHT22;16915;51.466;3.610;2022-09-09T19:58:57;16.20;99.90
30097;DHT22;16915;51.466;3.610;2022-09-09T20:01:26;16.20;99.90
30097;DHT22;16915;51.466;3.610;2022-09-09T20:03:53;16.20;99.90
30097;DHT22;16915;51.466;3.610;2022-09-09T20:06:22;16.10;99.90
30097;DHT22;16915;51.466;3.610;2022-09-09T20:08:48;16.10;99.90
30097;DHT22;16915;51.466;3.610;2022-09-09T20:11:15;16.10;99.90
30097;DHT22;16915;51.466;3.610;2022-09-09T20:13:42;16.10;99.90
30097;DHT22;16915;51.466;3.610;2022-09-09T20:16:13;16.20;99.90
30097;DHT22;16915;51.466;3.610;2022-09-09T20:18:40;16.10;99.90
30097;DHT22;16915;51.466;3.610;2022-09-09T20:21:11;16.10;99.90
30097;DHT22;16915;51.466;3.610;2022-09-09T20:23:37;16.10;99.90
30097;DHT22;16915;51.466;3.610;2022-09-09T20:26:06;16.10;99.90
30097;DHT22;16915;51.466;3.610;2022-09-09T20:28:33;16.00;99.90
30097;DHT22;16915;51.466;3.610;2022-09-09T20:31:27;16.10;99.90
30097;DHT22;16915;51.466;3.610;2022-09-09T20:33:54;16.00;99.90
30097;DHT22;16915;51.466;3.610;2022-09-09T20:39:19;16.00;99.90
30097;DHT22;16915;51.466;3.610;2022-09-09T20:41:45;16.00;99.90
30097;DHT22;16915;51.466;3.610;2022-09-09T20:44:20;16.00;99.90
30097;DHT22;16915;51.466;3.610;2022-09-09T20:46:50;16.00;99.90
30097;DHT22;16915;51.466;3.610;2022-09-09T20:49:18;16.00;99.90